Time;durP1;ratioP1;P1;durP2;ratioP2;P2;SDS_P1;SDS_P2;PMS_P1;PMS_P2;Temp;Humidity;BMP_temperature;BMP_pressure;BME280_temperature;BME280_humidity;BME280_pressure;Samples;Min_cycle;Max_cycle;Signal;HPM_P1;HPM_P2
2021/12/02 00:00:56;;;;;;;14.05;1.35;;;;;;;5.79;74.58;99870.63;5031383;28;20025;-41
2021/12/02 00:03:21;;;;;;;19.27;1.13;;;;;;;5.69;73.12;99873.53;5031800;28;20021;-41
2021/12/02 00:05:47;;;;;;;9.10;1.50;;;;;;;5.57;74.46;99863.41;5032101;28;20037;-42
2021/12/02 00:08:12;;;;;;;7.38;0.85;;;;;;;5.44;73.05;99864.78;5031981;28;20041;-42
2021/12/02 00:10:40;;;;;;;10.40;1.40;;;;;;;5.38;73.18;99862.81;5032066;28;20025;-42
2021/12/02 00:13:05;;;;;;;11.05;1.65;;;;;;;5.38;74.75;99865.47;5032055;28;20026;-41
2021/12/02 00:15:50;;;;;;;8.45;0.85;;;;;;;5.42;72.09;99874.78;5032225;28;20392;-41
2021/12/02 00:23:43;;;;;;;11.25;1.15;;;;;;;5.47;72.55;99880.44;5032451;28;20436;-41
2021/12/02 00:26:12;;;;;;;14.15;1.20;;;;;;;5.46;74.09;99884.13;5031506;28;20038;-41
2021/12/02 00:28:39;;;;;;;13.68;1.10;;;;;;;5.49;72.90;99878.44;5015373;28;20109;-41
2021/12/02 00:31:04;;;;;;;17.10;1.58;;;;;;;5.51;74.15;99875.59;5025531;28;20396;-41
2021/12/02 00:33:31;;;;;;;20.33;1.52;;;;;;;5.57;73.69;99871.41;5035747;28;20104;-42
2021/12/02 00:35:57;;;;;;;8.98;1.00;;;;;;;5.61;73.67;99870.03;5035368;28;20124;-42
2021/12/02 00:38:24;;;;;;;16.05;2.13;;;;;;;5.63;74.61;99868.88;5035317;28;20026;-42
2021/12/02 00:40:50;;;;;;;17.10;1.10;;;;;;;5.68;73.28;99855.81;5035745;28;20068;-42
2021/12/02 00:43:15;;;;;;;12.35;1.65;;;;;;;5.64;73.62;99870.53;5038225;28;20477;-41
2021/12/02 00:45:42;;;;;;;12.63;0.93;;;;;;;5.58;74.96;99862.38;5034918;28;20073;-42
2021/12/02 00:48:08;;;;;;;25.95;1.90;;;;;;;5.64;74.38;99853.72;5035386;28;20104;-42
2021/12/02 00:50:34;;;;;;;16.40;1.58;;;;;;;5.70;73.86;99861.84;5034263;28;20029;-41
2021/12/02 00:53:00;;;;;;;18.98;1.60;;;;;;;5.77;74.07;99864.66;5035208;28;20095;-41
2021/12/02 00:55:26;;;;;;;8.75;0.90;;;;;;;5.75;73.19;99877.34;5034087;28;20053;-41
2021/12/02 00:57:52;;;;;;;9.43;1.08;;;;;;;5.73;72.02;99876.66;5035416;28;20113;-41
2021/12/02 01:00:17;;;;;;;13.50;1.20;;;;;;;5.66;71.40;99870.34;5033151;28;20112;-41
2021/12/02 01:02:43;;;;;;;9.27;0.90;;;;;;;5.58;71.62;99871.25;5024367;28;20033;-41
2021/12/02 01:05:09;;;;;;;8.75;1.10;;;;;;;5.50;71.19;99879.25;5033895;28;20489;-41
2021/12/02 01:07:34;;;;;;;13.07;1.08;;;;;;;5.48;70.87;99889.31;5034893;28;20034;-41
2021/12/02 01:10:00;;;;;;;8.68;1.05;;;;;;;5.56;70.49;99877.75;5033746;28;20037;-41
2021/12/02 01:12:25;;;;;;;11.07;1.48;;;;;;;5.56;70.25;99883.94;5034484;28;20021;-41
2021/12/02 01:14:51;;;;;;;7.82;0.93;;;;;;;5.60;67.63;99871.88;5035042;28;20098;-41
2021/12/02 01:17:16;;;;;;;12.07;1.60;;;;;;;5.57;68.00;99874.09;5034961;28;20033;-41
2021/12/02 01:19:41;;;;;;;10.20;0.80;;;;;;;5.56;68.11;99875.09;5034724;28;20453;-41
2021/12/02 01:22:08;;;;;;;6.45;0.80;;;;;;;5.59;67.83;99866.75;5034309;28;20029;-41
2021/12/02 01:24:34;;;;;;;14.23;1.27;;;;;;;5.57;67.70;99864.22;5033624;28;20037;-41
2021/12/02 01:27:01;;;;;;;7.45;1.38;;;;;;;5.56;68.08;99867.09;5034879;28;20026;-40
2021/12/02 01:29:27;;;;;;;16.45;1.17;;;;;;;5.53;68.40;99878.94;5034645;28;20026;-41
2021/12/02 01:31:56;;;;;;;7.82;1.30;;;;;;;5.48;67.59;99865.28;5034268;28;20488;-41
2021/12/02 01:34:24;;;;;;;12.57;1.20;;;;;;;5.52;67.88;99876.44;5033243;28;20030;-41
2021/12/02 01:36:50;;;;;;;12.48;1.58;;;;;;;5.50;68.58;99880.13;5034599;28;20029;-42
2021/12/02 01:39:15;;;;;;;7.05;0.90;;;;;;;5.59;69.48;99874.75;5032911;28;20488;-42
2021/12/02 01:41:55;;;;;;;21.25;1.63;;;;;;;5.60;69.35;99885.22;5033010;28;20025;-42
2021/12/02 01:44:21;;;;;;;18.08;1.70;;;;;;;5.68;69.56;99890.53;5014241;28;20485;-42
2021/12/02 01:46:49;;;;;;;11.88;1.40;;;;;;;5.74;70.02;99886.38;5014589;28;20025;-42
2021/12/02 01:49:15;;;;;;;;;;;;;;;5.72;70.38;99870.50;5039753;28;20476;-41
2021/12/02 01:51:43;;;;;;;10.57;1.95;;;;;;;5.70;71.13;99869.00;5053869;28;19965;-41
2021/12/02 01:54:20;;;;;;;17.23;1.30;;;;;;;5.70;70.32;99879.69;5052844;28;20383;-41
2021/12/02 01:56:49;;;;;;;10.45;1.35;;;;;;;5.69;71.04;99883.38;5054178;28;20033;-41
2021/12/02 01:59:22;;;;;;;12.57;1.30;;;;;;;5.72;70.93;99894.53;5040525;28;20056;-41
2021/12/02 02:01:51;;;;;;;15.90;1.13;;;;;;;5.71;73.04;99892.88;5020046;28;20041;-41
2021/12/02 02:04:19;;;;;;;15.25;1.75;;;;;;;5.65;74.22;99908.75;5012964;28;20022;-41
2021/12/02 02:06:53;;;;;;;11.98;0.90;;;;;;;5.38;75.17;99892.16;5014213;28;20414;-42
2021/12/02 02:09:18;;;;;;;11.18;1.02;;;;;;;5.27;73.31;99913.88;5025930;28;20140;-42
2021/12/02 02:11:44;;;;;;;8.75;1.13;;;;;;;5.06;72.92;99925.91;5032476;28;20068;-42
2021/12/02 02:14:10;;;;;;;7.30;0.70;;;;;;;4.94;72.79;99921.91;5033824;28;20072;-42
2021/12/02 02:16:37;;;;;;;7.43;1.05;;;;;;;4.82;73.91;99925.94;5033470;28;20444;-42
2021/12/02 02:19:04;;;;;;;5.90;0.70;;;;;;;4.76;72.53;99922.09;5033545;28;20129;-42
2021/12/02 02:21:31;;;;;;;11.15;1.02;;;;;;;4.72;73.30;99926.09;5033830;28;20052;-41
2021/12/02 02:23:58;;;;;;;7.90;1.00;;;;;;;4.74;73.92;99921.44;5032154;28;20117;-42
2021/12/02 02:26:33;;;;;;;19.17;1.35;;;;;;;4.78;73.95;99917.44;5033679;28;20386;-41
2021/12/02 02:28:58;;;;;;;12.10;1.13;;;;;;;4.90;72.75;99925.06;5033227;28;20084;-41
2021/12/02 02:31:25;;;;;;;9.63;1.02;;;;;;;4.92;73.58;99918.56;5033570;28;20432;-41
2021/12/02 02:33:52;;;;;;;6.18;0.80;;;;;;;4.92;73.34;99923.91;5033479;28;20048;-40
2021/12/02 02:36:20;;;;;;;8.32;1.05;;;;;;;4.90;73.69;99920.59;5033593;28;20033;-42
2021/12/02 02:38:55;;;;;;;6.07;0.73;;;;;;;4.95;72.74;99909.41;5033106;28;20047;-41
2021/12/02 02:41:22;;;;;;;7.18;0.98;;;;;;;4.88;74.23;99919.94;5032736;28;20025;-41
2021/12/02 02:43:55;;;;;;;7.97;0.77;;;;;;;4.84;75.18;99923.91;5031934;28;20032;-40
2021/12/02 02:46:30;;;;;;;11.15;1.30;;;;;;;4.82;74.52;99924.09;5030945;28;20049;-41
2021/12/02 02:48:56;;;;;;;5.00;0.38;;;;;;;4.73;75.95;99918.94;5033544;28;20071;-41
2021/12/02 02:51:22;;;;;;;7.40;0.82;;;;;;;4.66;75.92;99929.44;5032772;28;20029;-42
2021/12/02 02:53:54;;;;;;;6.03;0.90;;;;;;;4.66;75.14;99920.59;5032672;28;20091;-40
2021/12/02 02:56:24;;;;;;;6.00;0.88;;;;;;;4.63;75.10;99924.41;5033260;28;20048;-40
2021/12/02 02:59:27;;;;;;;11.00;1.00;;;;;;;4.65;75.15;99926.94;5035897;28;20083;-40
2021/12/02 03:04:27;;;;;;;;;;;;;;;4.74;74.12;99925.91;5033757;28;20422;-40
2021/12/02 03:09:26;;;;;;;3.90;0.88;;;;;;;4.74;73.63;99909.91;5033272;28;20056;-41
2021/12/02 03:11:56;;;;;;;5.90;0.60;;;;;;;4.81;74.25;99917.09;5032895;28;20032;-41
2021/12/02 03:14:30;;;;;;;11.02;1.25;;;;;;;4.77;74.44;99923.75;5032918;28;20095;-41
2021/12/02 03:16:57;;;;;;;9.05;0.85;;;;;;;4.87;74.88;99930.75;5031792;28;20717;-42
2021/12/02 03:19:28;;;;;;;10.80;0.90;;;;;;;4.99;74.26;99932.09;5031709;28;20113;-42
2021/12/02 03:21:54;;;;;;;10.35;1.17;;;;;;;4.96;76.25;99919.09;5032691;28;20036;-41
2021/12/02 03:24:21;;;;;;;21.45;2.05;;;;;;;4.98;77.31;99922.44;5032919;28;20087;-41
2021/12/02 03:26:47;;;;;;;19.27;1.70;;;;;;;4.94;77.94;99921.91;5032799;28;20061;-42
2021/12/02 03:29:12;;;;;;;16.58;2.38;;;;;;;4.88;78.76;99930.59;5033160;28;20365;-42
2021/12/02 03:31:38;;;;;;;14.98;1.55;;;;;;;4.68;80.01;99919.41;5032396;28;20084;-41
2021/12/02 03:34:05;;;;;;;17.55;1.05;;;;;;;4.61;78.36;99921.94;5032810;28;20067;-42
2021/12/02 03:36:31;;;;;;;6.90;0.40;;;;;;;4.52;78.83;99927.41;5033174;28;20036;-41
2021/12/02 03:38:56;;;;;;;8.20;0.77;;;;;;;4.50;79.48;99924.06;5032665;28;20025;-41
2021/12/02 03:41:23;;;;;;;8.70;0.93;;;;;;;4.48;79.26;99921.59;5032364;28;20021;-41
2021/12/02 03:43:49;;;;;;;8.70;0.90;;;;;;;4.50;80.26;99914.28;5031255;28;20033;-40
2021/12/02 03:46:17;;;;;;;8.65;1.20;;;;;;;4.51;80.83;99915.94;5032350;28;20061;-40
2021/12/02 03:48:43;;;;;;;17.30;1.90;;;;;;;4.47;80.56;99924.41;5032799;28;20031;-41
2021/12/02 03:51:10;;;;;;;11.13;1.00;;;;;;;4.53;78.59;99915.75;5032338;28;20025;-41
2021/12/02 03:53:36;;;;;;;10.73;1.00;;;;;;;4.56;77.72;99918.09;5032789;28;20052;-41
2021/12/02 03:56:01;;;;;;;9.75;0.88;;;;;;;4.56;76.92;99923.44;5032782;28;20473;-41
2021/12/02 03:58:28;;;;;;;7.13;0.70;;;;;;;4.67;74.93;99920.44;5032538;28;20488;-41
2021/12/02 04:00:53;;;;;;;11.90;1.25;;;;;;;4.71;74.48;99924.41;5031942;28;20136;-41
2021/12/02 04:03:19;;;;;;;12.10;1.25;;;;;;;4.79;73.87;99926.25;5036442;28;20029;-41
2021/12/02 04:05:44;;;;;;;12.68;1.25;;;;;;;4.80;75.78;99942.09;5036327;28;20358;-41
2021/12/02 04:08:11;;;;;;;13.07;0.85;;;;;;;4.61;76.94;99951.25;5036493;28;20033;-41
2021/12/02 04:10:37;;;;;;;8.45;1.00;;;;;;;4.55;76.99;99951.88;5036385;28;20029;-41
2021/12/02 04:13:19;;;;;;;5.53;0.70;;;;;;;4.41;76.31;99947.22;5036236;28;20029;-41
2021/12/02 04:15:50;;;;;;;10.02;1.08;;;;;;;4.28;76.90;99950.34;5036601;28;20021;-41
2021/12/02 04:18:16;;;;;;;8.30;0.93;;;;;;;4.20;77.51;99939.69;5036856;28;20037;-41
2021/12/02 04:20:41;;;;;;;9.57;1.00;;;;;;;4.14;78.65;99935.03;5036863;28;20424;-40
2021/12/02 04:23:06;;;;;;;9.10;1.52;;;;;;;4.03;77.89;99927.31;5037151;28;20033;-40
2021/12/02 04:25:32;;;;;;;5.88;0.80;;;;;;;3.94;78.36;99926.47;5036886;28;20033;-40
2021/12/02 04:27:57;;;;;;;10.45;1.35;;;;;;;3.81;78.14;99929.56;5036294;28;20053;-40
2021/12/02 04:30:25;;;;;;;13.10;0.90;;;;;;;3.73;78.35;99930.38;5035671;28;20029;-41
2021/12/02 04:32:52;;;;;;;10.27;0.63;;;;;;;3.65;79.36;99927.69;5035729;28;20053;-41
2021/12/02 04:35:17;;;;;;;6.88;0.75;;;;;;;3.63;78.84;99921.69;5035420;28;20117;-41
2021/12/02 04:37:44;;;;;;;4.97;0.98;;;;;;;3.64;78.97;99918.03;5035833;28;20377;-41
2021/12/02 04:40:11;;;;;;;8.60;0.93;;;;;;;3.67;79.32;99925.69;5035465;28;20029;-41
2021/12/02 04:42:36;;;;;;;12.00;1.05;;;;;;;3.76;78.60;99917.75;5035678;28;20527;-41
2021/12/02 04:45:03;;;;;;;5.28;0.93;;;;;;;3.90;77.25;99917.16;5035304;28;20049;-41
2021/12/02 04:47:28;;;;;;;27.65;1.40;;;;;;;3.97;77.64;99923.47;5035885;28;20029;-41
2021/12/02 04:49:53;;;;;;;12.43;1.98;;;;;;;4.14;75.93;99911.06;5035769;28;20747;-41
2021/12/02 04:52:19;;;;;;;16.35;1.48;;;;;;;4.31;75.34;99915.41;5033909;28;20030;-41
2021/12/02 04:54:44;;;;;;;16.58;1.50;;;;;;;4.34;75.09;99920.38;5034989;28;20021;-41
2021/12/02 04:57:10;;;;;;;14.18;1.42;;;;;;;4.44;72.89;99912.25;5035776;28;20022;-41
2021/12/02 04:59:35;;;;;;;11.82;1.30;;;;;;;4.54;72.52;99920.91;5035562;28;20025;-41
2021/12/02 05:02:00;;;;;;;13.82;1.52;;;;;;;4.68;71.38;99916.75;5020004;28;20030;-41
2021/12/02 05:04:27;;;;;;;11.57;1.40;;;;;;;4.69;72.76;99926.44;5021830;28;20029;-41
2021/12/02 05:06:52;;;;;;;20.48;2.55;;;;;;;4.76;72.62;99916.75;5055295;28;20025;-41
2021/12/02 05:09:17;;;;;;;15.52;1.80;;;;;;;4.82;72.15;99925.94;5048949;28;20037;-41
2021/12/02 05:11:43;;;;;;;11.23;1.40;;;;;;;4.86;71.16;99924.59;5034139;28;20040;-42
2021/12/02 05:14:08;;;;;;;12.15;1.15;;;;;;;4.98;69.46;99930.44;5034706;28;20048;-41
2021/12/02 05:16:35;;;;;;;17.90;1.80;;;;;;;4.97;69.67;99928.75;5035014;28;20021;-42
2021/12/02 05:19:00;;;;;;;14.60;1.58;;;;;;;4.99;70.05;99948.09;5034131;28;20029;-41
2021/12/02 05:21:26;;;;;;;16.92;1.30;;;;;;;5.01;70.72;99943.41;5033622;28;20087;-42
2021/12/02 05:23:53;;;;;;;14.13;1.50;;;;;;;4.98;70.86;99946.44;5033951;28;20035;-42
2021/12/02 05:26:19;;;;;;;11.60;1.30;;;;;;;4.92;70.07;99931.91;5034101;28;20032;-41
2021/12/02 05:28:44;;;;;;;17.88;1.83;;;;;;;4.83;71.13;99946.25;5030224;28;20030;-42
2021/12/02 05:31:10;;;;;;;17.40;1.50;;;;;;;4.78;71.14;99927.25;5029493;28;20079;-41
2021/12/02 05:33:35;;;;;;;15.57;1.65;;;;;;;4.76;70.32;99938.06;5030745;28;20088;-41
2021/12/02 05:36:00;;;;;;;18.52;1.30;;;;;;;4.84;67.95;99937.25;5029468;28;20037;-41
2021/12/02 05:38:26;;;;;;;18.55;2.25;;;;;;;5.01;66.76;99949.59;5030591;28;20040;-41
2021/12/02 05:40:51;;;;;;;15.75;2.03;;;;;;;5.15;66.27;99940.06;5031157;28;20025;-41
2021/12/02 05:43:16;;;;;;;13.80;1.25;;;;;;;5.05;67.48;99942.94;5028499;28;20030;-41
2021/12/02 05:45:42;;;;;;;10.07;1.10;;;;;;;5.04;67.05;99930.56;5023649;28;20579;-42
2021/12/02 05:48:07;;;;;;;15.30;1.75;;;;;;;5.07;67.17;99948.91;5032412;28;20435;-42
2021/12/02 05:50:32;;;;;;;17.33;2.15;;;;;;;5.09;70.68;99955.91;5034178;28;20044;-42
2021/12/02 05:52:58;;;;;;;22.70;2.10;;;;;;;5.07;71.97;99958.75;5032471;28;20030;-41
2021/12/02 05:55:23;;;;;;;20.88;2.03;;;;;;;4.96;74.04;99962.59;5029024;28;20029;-41
2021/12/02 05:57:49;;;;;;;13.50;1.55;;;;;;;4.85;75.76;99984.25;5032164;28;20078;-41
2021/12/02 06:00:15;;;;;;;20.10;1.55;;;;;;;4.72;74.44;99981.25;5032324;28;20112;-41
2021/12/02 06:02:40;;;;;;;17.73;2.00;;;;;;;4.63;74.67;99999.03;5033398;28;20030;-41
2021/12/02 06:05:06;;;;;;;19.40;1.73;;;;;;;4.49;73.65;99999.69;5033124;28;20022;-41
2021/12/02 06:07:33;;;;;;;7.82;1.65;;;;;;;4.40;73.81;100009.50;5033559;28;20473;-41
2021/12/02 06:09:58;;;;;;;17.13;1.75;;;;;;;4.29;73.35;100017.78;5033536;28;20029;-41
2021/12/02 06:12:23;;;;;;;9.70;1.50;;;;;;;4.21;72.56;100015.09;5033817;28;20056;-41
2021/12/02 06:14:49;;;;;;;13.88;1.25;;;;;;;4.10;73.76;100017.03;5032460;28;20108;-41
2021/12/02 06:17:14;;;;;;;8.73;1.05;;;;;;;4.07;72.37;100016.53;5033901;28;20108;-41
2021/12/02 06:19:40;;;;;;;14.35;1.40;;;;;;;3.94;72.89;100014.31;5033706;28;20072;-42
2021/12/02 06:22:05;;;;;;;6.90;1.23;;;;;;;3.85;72.93;100012.63;5033783;28;20044;-41
2021/12/02 06:24:42;;;;;;;11.07;1.20;;;;;;;3.74;74.71;100003.91;5032824;28;20037;-41
2021/12/02 06:27:07;;;;;;;13.00;1.17;;;;;;;3.71;74.94;100012.22;5034183;28;20029;-41
2021/12/02 06:29:32;;;;;;;9.52;1.00;;;;;;;3.73;74.22;99996.91;5033619;28;20079;-42
2021/12/02 06:31:58;;;;;;;10.88;1.30;;;;;;;3.76;75.07;100000.25;5032063;28;20064;-41
2021/12/02 06:34:23;;;;;;;12.30;1.95;;;;;;;3.79;74.75;99999.91;5033274;28;20061;-41
2021/12/02 06:36:48;;;;;;;7.88;1.30;;;;;;;3.84;74.42;100002.94;5033230;28;20507;-41
2021/12/02 06:39:13;;;;;;;14.95;1.52;;;;;;;3.92;73.16;99997.66;5033577;28;20596;-41
2021/12/02 06:41:39;;;;;;;13.50;1.65;;;;;;;3.91;74.41;100001.31;5032075;28;20029;-39
2021/12/02 06:44:04;;;;;;;18.13;1.73;;;;;;;3.95;74.39;100000.84;5033162;28;20055;-41
2021/12/02 06:46:30;;;;;;;9.35;1.30;;;;;;;3.99;74.33;99998.69;5033191;28;20080;-41
2021/12/02 06:48:57;;;;;;;13.32;1.30;;;;;;;4.03;73.13;99997.41;5032997;28;20022;-40
2021/12/02 06:51:23;;;;;;;7.82;1.25;;;;;;;4.12;73.78;100001.75;5033016;28;20030;-41
2021/12/02 06:53:49;;;;;;;10.27;1.17;;;;;;;4.23;74.43;100007.78;5032748;28;20473;-41
2021/12/02 06:56:14;;;;;;;13.90;1.35;;;;;;;4.23;74.92;99997.13;5032877;28;20025;-41
2021/12/02 06:58:39;;;;;;;6.95;1.50;;;;;;;4.26;74.04;99996.78;5031227;28;20101;-41
2021/12/02 07:01:05;;;;;;;12.57;1.27;;;;;;;4.20;72.99;100002.78;5032987;28;20045;-42
2021/12/02 07:03:30;;;;;;;9.30;1.38;;;;;;;4.13;71.29;100002.56;5033029;28;20445;-41
2021/12/02 07:05:55;;;;;;;20.92;9.77;;;;;;;4.05;72.18;100014.00;5031979;28;20449;-40
2021/12/02 07:08:21;;;;;;;10.02;1.45;;;;;;;4.02;73.60;100014.34;5032331;28;20026;-41
2021/12/02 07:10:46;;;;;;;14.50;1.55;;;;;;;3.98;72.94;100005.03;5032590;28;20026;-42
2021/12/02 07:13:12;;;;;;;17.85;1.30;;;;;;;4.04;73.64;100009.69;5028694;28;20107;-41
2021/12/02 07:18:37;;;;;;;17.95;2.08;;;;;;;4.07;75.09;100009.38;5024765;28;20092;-41
2021/12/02 07:21:02;;;;;;;19.60;3.30;;;;;;;4.13;74.80;100018.53;5012770;28;20061;-41
2021/12/02 07:23:28;;;;;;;16.77;2.38;;;;;;;4.18;72.96;100011.75;5012405;28;20068;-42
2021/12/02 07:25:53;;;;;;;14.00;2.28;;;;;;;4.25;71.98;100011.94;5012755;28;20072;-41
2021/12/02 07:28:19;;;;;;;20.75;1.60;;;;;;;4.32;72.05;100028.13;5012524;28;20061;-41
2021/12/02 07:30:51;;;;;;;14.60;1.98;;;;;;;4.39;74.04;100021.97;5012688;28;20042;-41
2021/12/02 07:33:16;;;;;;;18.73;1.85;;;;;;;4.35;76.93;100033.97;5012768;28;20054;-41
2021/12/02 07:35:41;;;;;;;15.63;1.65;;;;;;;4.37;77.80;100042.63;5010702;28;20122;-41
2021/12/02 07:38:07;;;;;;;8.57;1.65;;;;;;;4.24;77.34;100047.56;5012081;28;20543;-41
2021/12/02 07:40:36;;;;;;;9.13;1.10;;;;;;;4.11;75.17;100040.03;5010999;28;20061;-41
2021/12/02 07:43:03;;;;;;;7.53;0.85;;;;;;;4.07;74.25;100040.50;5011131;28;20033;-41
2021/12/02 07:45:34;;;;;;;7.25;1.50;;;;;;;4.00;74.87;100040.28;5011989;28;20545;-40
2021/12/02 07:48:01;;;;;;;12.02;1.10;;;;;;;4.00;73.74;100045.63;5011893;28;20077;-41
2021/12/02 07:50:27;;;;;;;5.38;1.23;;;;;;;4.01;73.75;100047.31;5010481;28;20493;-41
2021/12/02 07:52:54;;;;;;;10.02;1.95;;;;;;;4.00;76.25;100056.25;5011771;28;20033;-41
2021/12/02 07:55:21;;;;;;;11.48;1.20;;;;;;;3.98;74.91;100047.63;5012002;28;20045;-41
2021/12/02 07:57:47;;;;;;;8.75;1.70;;;;;;;4.06;74.79;100050.31;5011868;28;20053;-41
2021/12/02 08:00:23;;;;;;;21.52;1.80;;;;;;;4.00;74.79;100050.94;5012115;28;20068;-41
2021/12/02 08:02:51;;;;;;;11.73;2.00;;;;;;;4.02;74.38;100069.44;5012671;28;20036;-41
2021/12/02 08:05:17;;;;;;;19.30;1.77;;;;;;;4.03;75.00;100073.75;5011856;28;20114;-40
2021/12/02 08:07:44;;;;;;;7.28;1.25;;;;;;;3.97;75.63;100077.88;5011869;28;20033;-41
2021/12/02 08:10:11;;;;;;;9.38;1.10;;;;;;;3.94;75.81;100070.22;5010822;28;20060;-40
2021/12/02 08:12:38;;;;;;;16.17;1.80;;;;;;;3.97;75.51;100077.88;5012226;28;20038;-41
2021/12/02 08:15:06;;;;;;;7.30;1.38;;;;;;;4.07;74.43;100093.75;5012253;28;20189;-41
2021/12/02 08:17:32;;;;;;;7.97;1.92;;;;;;;4.03;74.98;100092.38;5012351;28;20032;-41
2021/12/02 08:19:57;;;;;;;7.95;1.75;;;;;;;4.00;75.56;100104.19;5012274;28;20104;-41
2021/12/02 08:22:23;;;;;;;8.13;2.13;;;;;;;4.04;73.10;100105.56;5012529;28;20044;-41
2021/12/02 08:24:48;;;;;;;10.25;1.10;;;;;;;4.08;71.89;100116.72;5012102;28;20478;-41
2021/12/02 08:27:13;;;;;;;5.95;1.10;;;;;;;4.12;72.14;100115.41;5011988;28;20500;-40
2021/12/02 08:29:39;;;;;;;11.45;1.00;;;;;;;4.20;71.96;100120.78;5012299;28;20462;-41
2021/12/02 08:32:05;;;;;;;9.00;0.93;;;;;;;4.47;70.89;100125.06;5012573;28;20088;-41
2021/12/02 08:34:30;;;;;;;14.35;1.75;;;;;;;5.25;69.80;100129.31;5012228;28;20018;-41
2021/12/02 08:36:56;;;;;;;7.28;1.75;;;;;;;6.53;64.72;100126.81;5012435;28;20096;-41
2021/12/02 08:39:25;;;;;;;7.07;0.70;;;;;;;7.76;60.90;100126.03;5012655;28;20058;-42
2021/12/02 08:41:52;;;;;;;7.68;1.10;;;;;;;8.78;58.25;100128.97;5013676;28;20080;-41
2021/12/02 08:44:18;;;;;;;5.95;1.27;;;;;;;9.51;55.40;100131.63;5013599;28;20392;-41
2021/12/02 08:46:44;;;;;;;5.25;0.98;;;;;;;9.86;53.98;100149.47;5013431;28;20042;-41
2021/12/02 08:49:09;;;;;;;5.95;0.95;;;;;;;9.63;56.18;100148.84;5014481;28;20056;-41
2021/12/02 08:51:35;;;;;;;6.88;1.00;;;;;;;9.55;56.75;100151.69;5015945;28;20026;-41
2021/12/02 08:54:01;;;;;;;8.73;1.02;;;;;;;9.73;55.47;100149.38;5015777;28;20041;-41
2021/12/02 08:56:26;;;;;;;7.43;0.93;;;;;;;9.70;55.17;100155.13;5015644;28;20026;-41
2021/12/02 08:58:52;;;;;;;9.90;1.00;;;;;;;9.55;55.79;100157.06;5015567;28;20026;-41
2021/12/02 09:01:18;;;;;;;3.83;0.85;;;;;;;9.42;55.73;100152.38;5015911;28;20100;-41
2021/12/02 09:03:44;;;;;;;9.25;0.80;;;;;;;9.31;55.84;100167.16;5015396;28;20041;-41
2021/12/02 09:06:10;;;;;;;4.35;0.80;;;;;;;9.51;55.81;100166.53;5015266;28;20034;-41
2021/12/02 09:08:36;;;;;;;12.60;1.00;;;;;;;9.68;56.30;100175.97;5014915;28;20041;-41
2021/12/02 09:11:03;;;;;;;4.75;0.80;;;;;;;9.86;54.46;100181.72;5015382;28;20029;-41
2021/12/02 09:13:29;;;;;;;5.90;1.00;;;;;;;10.33;54.14;100193.72;5014075;28;20049;-41
2021/12/02 09:15:54;;;;;;;6.28;1.00;;;;;;;10.38;54.43;100203.91;5015200;28;20064;-41
2021/12/02 09:18:19;;;;;;;2.95;0.85;;;;;;;9.97;54.96;100187.63;5015203;28;20427;-41
2021/12/02 09:20:45;;;;;;;4.03;0.70;;;;;;;9.26;57.23;100184.84;5015153;28;20400;-41
2021/12/02 09:23:10;;;;;;;5.05;0.95;;;;;;;8.29;62.13;100177.75;5014877;28;20030;-41
2021/12/02 09:25:35;;;;;;;5.18;0.95;;;;;;;7.32;65.79;100180.25;5014899;28;20026;-41
2021/12/02 09:28:01;;;;;;;6.97;1.10;;;;;;;6.70;67.31;100186.41;5014866;28;20161;-41
2021/12/02 09:30:27;;;;;;;7.00;1.05;;;;;;;6.26;70.33;100193.03;5015000;28;20026;-41
2021/12/02 09:32:53;;;;;;;6.38;1.30;;;;;;;5.92;69.93;100188.72;5014943;28;20478;-41
2021/12/02 09:35:19;;;;;;;3.00;0.85;;;;;;;5.84;70.05;100190.53;5015060;28;20030;-41
2021/12/02 09:37:45;;;;;;;9.05;1.20;;;;;;;5.60;72.73;100194.88;5013474;28;20026;-41
2021/12/02 09:40:12;;;;;;;4.78;0.98;;;;;;;5.51;74.87;100190.53;5014722;28;20029;-41
2021/12/02 09:42:39;;;;;;;10.97;1.50;;;;;;;5.62;73.44;100205.41;5014492;28;20034;-41
2021/12/02 09:45:05;;;;;;;7.03;1.30;;;;;;;5.98;74.54;100210.44;5014346;28;20045;-41
2021/12/02 09:47:36;;;;;;;15.23;1.80;;;;;;;6.86;72.91;100205.06;5014407;28;20037;-41
2021/12/02 09:50:08;;;;;;;13.27;3.33;;;;;;;8.21;67.37;100213.53;5014665;28;20087;-42
2021/12/02 09:52:38;;;;;;;6.50;0.90;;;;;;;8.91;63.20;100217.69;5014620;28;20033;-42
2021/12/02 09:57:58;;;;;;;19.08;1.60;;;;;;;9.01;62.26;100204.81;5005962;28;20052;-41
2021/12/02 10:00:41;;;;;;;16.03;1.77;;;;;;;9.40;62.26;100219.72;5014255;28;20453;-41
2021/12/02 10:03:19;;;;;;;9.77;1.08;;;;;;;9.35;60.92;100219.47;5014468;28;20481;-40
2021/12/02 10:05:54;;;;;;;18.17;1.83;;;;;;;8.78;61.50;100230.91;5014444;28;20402;-41
2021/12/02 10:08:22;;;;;;;11.80;1.48;;;;;;;8.30;62.08;100236.56;5014427;28;20030;-41
2021/12/02 10:10:52;;;;;;;7.15;1.15;;;;;;;7.86;63.98;100234.59;5016854;28;20135;-41
2021/12/02 10:15:53;;;;;;;6.43;2.20;;;;;;;7.29;63.86;100251.03;5033743;28;20388;-41
2021/12/02 10:18:21;;;;;;;14.43;1.52;;;;;;;7.16;64.08;100246.25;5021373;28;20033;-40
2021/12/02 10:20:50;;;;;;;9.35;1.52;;;;;;;6.92;65.25;100254.38;5014354;28;20022;-40
2021/12/02 10:23:22;;;;;;;12.40;1.02;;;;;;;6.80;64.32;100257.41;5014066;28;20121;-40
2021/12/02 10:25:59;;;;;;;7.75;0.90;;;;;;;6.74;64.58;100250.09;5014023;28;20025;-41
2021/12/02 10:28:28;;;;;;;22.00;2.00;;;;;;;6.65;65.75;100259.13;5026265;28;20029;-41
2021/12/02 10:30:56;;;;;;;10.30;1.20;;;;;;;6.51;65.97;100266.00;5033506;28;20033;-42
2021/12/02 10:33:38;;;;;;;11.85;1.40;;;;;;;6.57;66.47;100277.84;5036521;28;20021;-41
2021/12/02 10:36:07;;;;;;;9.95;2.28;;;;;;;6.28;68.49;100267.69;5053209;28;20049;-40
2021/12/02 10:38:44;;;;;;;5.53;0.95;;;;;;;6.10;69.01;100276.72;5053275;28;20118;-40
2021/12/02 10:41:11;;;;;;;3.58;0.80;;;;;;;6.06;70.27;100290.59;5053592;28;20025;-40
2021/12/02 10:44:16;;;;;;;7.88;0.65;;;;;;;5.91;70.08;100317.91;5053134;28;20025;-41
2021/12/02 10:47:08;;;;;;;7.03;0.80;;;;;;;5.46;72.61;100332.47;5039882;28;20053;-41
2021/12/02 10:49:41;;;;;;;5.30;0.82;;;;;;;5.16;75.32;100354.34;5033349;28;20043;-41
2021/12/02 10:52:10;;;;;;;3.85;0.50;;;;;;;4.92;77.30;100355.88;5033537;28;20025;-41
2021/12/02 10:54:38;;;;;;;1.77;0.77;;;;;;;4.67;78.07;100357.56;5032155;28;20124;-40
2021/12/02 10:57:14;;;;;;;1.23;0.43;;;;;;;4.36;79.40;100370.47;5033054;28;20378;-40
2021/12/02 10:59:50;;;;;;;3.35;0.60;;;;;;;4.11;80.99;100367.56;5033137;28;20033;-39
2021/12/02 11:02:28;;;;;;;4.13;0.73;;;;;;;3.93;81.35;100356.09;5015251;28;20053;-38
2021/12/02 11:05:11;;;;;;;6.88;0.80;;;;;;;3.76;81.47;100356.88;5013116;28;20535;-38
2021/12/02 11:07:41;;;;;;;3.83;0.77;;;;;;;3.76;82.31;100356.88;5013229;28;20061;-39
2021/12/02 11:10:12;;;;;;;3.08;0.60;;;;;;;3.74;83.58;100365.88;5011947;28;20033;-40
2021/12/02 11:12:42;;;;;;;8.63;0.80;;;;;;;3.73;84.23;100363.34;5012868;28;20026;-40
2021/12/02 11:15:16;;;;;;;4.47;0.73;;;;;;;3.78;83.32;100363.72;5012962;28;20026;-39
2021/12/02 11:17:43;;;;;;;4.10;0.75;;;;;;;3.77;83.92;100363.91;5013360;28;20383;-40
2021/12/02 11:20:12;;;;;;;3.63;0.75;;;;;;;3.78;84.53;100360.25;5011665;28;20167;-39
2021/12/02 11:22:37;;;;;;;3.67;0.70;;;;;;;3.76;84.86;100351.56;5012753;28;20084;-40
2021/12/02 11:25:07;;;;;;;2.38;0.57;;;;;;;3.80;85.32;100352.94;5012527;28;20033;-40
2021/12/02 11:27:45;;;;;;;6.28;1.00;;;;;;;3.80;85.04;100352.94;5013070;28;20065;-40
2021/12/02 11:30:13;;;;;;;3.97;0.98;;;;;;;3.87;85.06;100343.34;5013053;28;20103;-41
2021/12/02 11:32:45;;;;;;;7.00;1.25;;;;;;;3.96;85.38;100353.94;5012722;28;20172;-40
2021/12/02 11:35:18;;;;;;;6.90;1.10;;;;;;;4.03;84.95;100340.88;5011323;28;20026;-41
2021/12/02 11:37:47;;;;;;;9.93;1.67;;;;;;;4.10;85.02;100343.75;5012735;28;20041;-41
2021/12/02 11:40:22;;;;;;;15.55;1.88;;;;;;;4.15;85.66;100342.31;5028998;28;20433;-40
2021/12/02 11:42:50;;;;;;;14.90;2.05;;;;;;;4.19;86.47;100348.19;5046839;28;20029;-40
2021/12/02 11:45:16;;;;;;;8.15;1.50;;;;;;;4.19;84.44;100345.50;5033767;28;20053;-41
2021/12/02 11:47:42;;;;;;;5.75;1.40;;;;;;;4.18;84.26;100354.47;5032266;28;20096;-40
2021/12/02 11:50:09;;;;;;;8.63;1.90;;;;;;;4.26;84.37;100348.38;5032275;28;20104;-39
2021/12/02 11:52:36;;;;;;;9.40;1.83;;;;;;;4.33;84.11;100365.44;5032021;28;20029;-40
2021/12/02 11:55:04;;;;;;;16.10;2.10;;;;;;;4.42;84.71;100364.50;5032233;28;20029;-40